This is the latest recevied weather packets stored in our database for station/object WX5RP. If no packets are shown the sender has not sent any weather packets the latest 10 day(s).
| Time | Temp. | Humidity | Pressure | Rain* | Wind** | Luminosity | Snow |
|---|---|---|---|---|---|---|---|
| 1778139315 | 10.56° C | 63% | 1020.5 hPa | 0 mm | - | 0 W/m² | - |
| 1778138716 | 10.56° C | 62% | 1020.5 hPa | 0 mm | - | 0 W/m² | - |
| 1778138118 | 11.11° C | 61% | 1020.8 hPa | 0 mm | - | 0 W/m² | - |
| 1778137518 | 10° C | 66% | 1021.5 hPa | 0 mm | - | 0 W/m² | - |
| 1778136917 | 10° C | 67% | 1020.9 hPa | 0 mm | - | 0 W/m² | - |
| 1778136317 | 10.56° C | 66% | 1020.9 hPa | 0 mm | - | 0 W/m² | - |
| 1778135717 | 11.11° C | 61% | 1020.9 hPa | 0 mm | - | 0 W/m² | - |
| 1778135117 | 11.11° C | 63% | 1020.6 hPa | 0 mm | - | 0 W/m² | - |
| 1778134517 | 11.11° C | 65% | 1020.6 hPa | 0 mm | - | 0 W/m² | - |
| 1778133917 | 12.78° C | 57% | 1020.9 hPa | 0 mm | - | 0 W/m² | - |
| 1778133317 | 13.33° C | 51% | 1020.9 hPa | 0 mm | - | 0 W/m² | - |
| 1778132717 | 13.89° C | 52% | 1020.9 hPa | 0 mm | - | 0 W/m² | - |
| 1778132117 | 12.78° C | 55% | 1021.1 hPa | 0 mm | - | 0 W/m² | - |
| 1778131517 | 12.78° C | 54% | 1020.8 hPa | 0 mm | - | 0 W/m² | - |
| 1778130917 | 12.78° C | 57% | 1020.8 hPa | 0 mm | - | 0 W/m² | - |
| 1778130316 | 13.89° C | 55% | 1020.9 hPa | 0 mm | - | 0 W/m² | - |
| 1778129716 | 13.89° C | 50% | 1020.7 hPa | 0 mm | - | 0 W/m² | - |
| 1778129116 | 15° C | 50% | 1021 hPa | 0 mm | - | 0 W/m² | - |
| 1778128516 | 15° C | 48% | 1020.5 hPa | 0 mm | - | 0 W/m² | - |
| 1778127916 | 14.44° C | 50% | 1020.1 hPa | 0 mm | - | 0 W/m² | - |
| 1778127316 | 15° C | 51% | 1020.1 hPa | 0 mm | - | 0 W/m² | - |
| 1778126717 | 16.11° C | 48% | 1020.3 hPa | 0 mm | - | 0 W/m² | - |
| 1778126116 | 15.56° C | 49% | 1019.5 hPa | 0 mm | - | 0 W/m² | - |
| 1778125516 | 16.67° C | 47% | 1019.5 hPa | 0 mm | - | 0 W/m² | - |
| 1778124916 | 16.67° C | 46% | 1019.1 hPa | 0 mm | - | 0 W/m² | - |
* Rain latest hour (hover to see other rain measurements)
** Current wind speed in m/s (hover to see current wind gust speed)